Latest Weather Observations for Cape Leeuwin

IDW60801

Issued at 11:43 am WST Monday 8 March 2021 (issued every 10 minutes, with the page automatically refreshed every 10 minutes)

About weather observations | Map of weather stations | Latest weather observations for WA | Other Formats
Station Details ID: 009518 Name: CAPE LEEUWIN Lat: -34.37 Lon: 115.14 Height: 13.0 m
Data from the previous 72 hours. | See also: Recent months at Cape Leeuwin
Date/Time
WST
Temp
°C
App
Temp
°C
Dew
Point
°C
Rel
Hum
%
Delta-T
°C
Wind Press
QNH
hPa
Press
MSL
hPa
Rain since
9am
mm
Dir  Spd
km/h
Gust
km/h
Spd
kts
Gust
kts
08/11:30am 20.2 14.4 15.0 72 3.1 ESE 39 48 21 26 1017.9 1017.8 0.0
08/11:00am 20.1 13.5 14.9 72 3.0 ESE 43 50 23 27 1018.4 1018.3 0.0
08/10:30am 20.4 14.2 15.8 75 2.7 E 43 48 23 26 1018.2 1018.1 0.0
08/10:00am 19.9 13.8 15.3 75 2.7 E 41 48 22 26 1018.5 1018.4 0.0
08/09:30am 19.6 12.7 15.5 77 2.4 E 46 54 25 29 1018.2 1018.1 0.0
08/09:00am 19.3 12.4 15.6 79 2.2 E 46 54 25 29 1018.4 1018.3 0.2
08/08:30am 19.0 11.2 15.1 78 2.3 E 50 57 27 31 1018.2 1018.1 0.2
08/08:00am 18.8 12.0 14.9 78 2.3 ESE 44 54 24 29 1018.6 1018.5 0.2
08/07:30am 19.0 12.0 15.3 79 2.2 E 46 57 25 31 1018.5 1018.4 0.2
08/07:00am 18.7 11.3 15.2 80 2.0 ESE 48 57 26 31 1018.1 1018.0 0.2
08/06:30am 18.8 12.8 15.5 81 1.9 ESE 41 50 22 27 1017.9 1017.8 0.2
08/06:00am 18.7 13.1 15.4 81 1.9 ESE 39 46 21 25 1017.8 1017.7 0.2
08/05:30am 18.9 13.5 16.0 83 1.7 E 39 44 21 24 1017.4 1017.3 0.2
08/05:00am 18.9 12.7 15.8 82 1.8 ESE 43 52 23 28 1016.6 1016.5 0.2
08/04:30am 18.8 13.4 15.9 83 1.7 ESE 39 46 21 25 1016.9 1016.8 0.2
08/04:00am 18.8 13.5 16.2 85 1.5 ESE 39 46 21 25 1016.7 1016.6 0.2
08/03:30am 18.6 13.3 16.2 86 1.4 ESE 39 48 21 26 1017.0 1016.9 0.2
08/03:00am 18.9 13.2 16.3 85 1.6 ESE 41 48 22 26 1016.8 1016.7 0.2
08/02:30am 19.3 13.2 16.7 85 1.6 ESE 44 52 24 28 1016.4 1016.3 0.2
08/02:00am 19.2 12.7 16.6 85 1.6 E 46 56 25 30 1016.5 1016.4 0.2
08/01:30am 19.2 12.9 16.2 83 1.8 ESE 44 52 24 28 1016.7 1016.6 0.2
08/01:00am 19.5 13.1 16.9 85 1.6 ESE 46 54 25 29 1017.0 1016.9 0.2
08/12:30am 19.6 14.3 17.2 86 1.5 ESE 41 48 22 26 1017.1 1017.0 0.2
08/12:00am 19.6 13.3 17.0 85 1.6 ESE 46 59 25 32 1017.0 1016.9 0.2
 
Date/Time
WST
Temp
°C
App
Temp
°C
Dew
Point
°C
Rel
Hum
%
Delta-T
°C
Wind Press
QNH
hPa
Press
MSL
hPa
Rain since
9am
mm
Dir  Spd
km/h
Gust
km/h
Spd
kts
Gust
kts
07/11:30pm 19.7 12.6 17.1 85 1.6 ESE 50 59 27 32 1016.6 1016.5 0.2
07/11:00pm 19.7 13.9 17.3 86 1.5 ESE 44 54 24 29 1017.3 1017.2 0.2
07/10:30pm 19.8 14.0 17.4 86 1.5 ESE 44 52 24 28 1017.7 1017.6 0.2
07/10:00pm 20.1 14.4 17.7 86 1.5 ESE 44 56 24 30 1017.6 1017.5 0.2
07/09:30pm 20.3 14.3 17.9 86 1.5 ESE 46 57 25 31 1017.3 1017.2 0.2
07/09:00pm 20.1 14.5 17.5 85 1.6 ESE 43 54 23 29 1017.7 1017.6 0.2
07/08:30pm 20.4 15.7 17.8 85 1.6 SE 39 52 21 28 1017.8 1017.7 0.2
07/08:00pm 20.3 15.2 17.7 85 1.6 SE 41 56 22 30 1017.4 1017.3 0.2
07/07:30pm 20.2 14.8 18.0 87 1.4 SE 43 54 23 29 1016.6 1016.5 0.2
07/07:00pm 20.4 15.9 18.3 88 1.3 SE 39 52 21 28 1016.2 1016.1 0.2
07/06:30pm 20.5 16.0 18.3 87 1.4 SE 39 52 21 28 1016.3 1016.2 0.2
07/06:00pm 20.5 15.5 17.9 85 1.6 SE 41 54 22 29 1016.1 1016.0 0.2
07/05:30pm 20.5 14.9 17.5 83 1.8 SE 43 52 23 28 1015.7 1015.6 0.2
07/05:00pm 21.0 15.6 17.8 82 2.0 SE 43 54 23 29 1015.2 1015.1 0.2
07/04:30pm 21.4 16.0 17.8 80 2.2 ESE 43 52 23 28 1015.3 1015.2 0.2
07/04:00pm 21.8 16.8 18.0 79 2.4 SE 41 52 22 28 1015.3 1015.2 0.2
07/03:30pm 22.2 18.2 18.4 79 2.4 SE 37 46 20 25 1015.6 1015.5 0.2
07/03:00pm 21.6 16.9 17.8 79 2.4 SE 39 50 21 27 1015.7 1015.6 0.2
07/02:30pm 21.9 17.3 18.1 79 2.4 SE 39 46 21 25 1016.0 1015.9 0.2
07/02:00pm 21.9 18.3 17.7 77 2.6 SE 33 43 18 23 1016.5 1016.4 0.2
07/01:30pm 22.6 19.5 18.4 77 2.6 SE 32 41 17 22 1016.5 1016.4 0.2
07/01:00pm 22.6 19.4 18.2 76 2.7 SE 32 43 17 23 1016.7 1016.6 0.2
07/12:30pm 22.4 19.3 18.4 78 2.5 SE 32 43 17 23 1016.7 1016.6 0.2
07/12:00pm 21.7 18.3 18.1 80 2.2 SE 33 43 18 23 1016.8 1016.7 0.2
07/11:30am 22.2 18.8 18.2 78 2.5 SE 33 41 18 22 1016.7 1016.6 0.2
07/11:00am 22.0 18.7 18.0 78 2.5 ESE 32 39 17 21 1017.0 1016.9 0.0
07/10:30am 21.9 18.6 17.9 78 2.5 ESE 32 39 17 21 1017.4 1017.3 0.0
07/10:00am 21.8 18.8 17.8 78 2.5 ESE 30 37 16 20 1017.8 1017.7 0.0
07/09:30am 21.4 18.1 18.0 81 2.1 ESE 32 35 17 19 1017.6 1017.5 0.0
07/09:00am 20.9 17.0 17.9 83 1.9 ESE 35 41 19 22 1017.1 1017.0 1.4
07/08:30am 20.4 16.5 17.8 85 1.6 ESE 35 43 19 23 1016.9 1016.8 1.4
07/08:00am 20.1 16.6 17.9 87 1.4 ESE 33 39 18 21 1017.0 1016.9 1.4
07/07:30am 19.9 16.6 17.9 88 1.2 ESE 32 39 17 21 1017.0 1016.9 1.4
07/07:00am 19.5 15.9 17.6 89 1.2 ESE 33 39 18 21 1016.9 1016.8 1.4
07/06:30am 19.3 15.3 17.6 90 1.0 E 35 41 19 22 1016.5 1016.4 1.4
07/06:00am 19.4 15.4 17.7 90 1.0 E 35 41 19 22 1016.2 1016.1 1.4
07/05:30am 19.4 16.4 17.7 90 1.0 ESE 30 39 16 21 1016.3 1016.2 1.4
07/05:00am 19.6 16.1 17.9 90 1.0 ESE 33 41 18 22 1016.2 1016.1 1.4
07/04:30am 19.7 16.2 18.0 90 1.0 ESE 33 37 18 20 1016.1 1016.0 1.4
07/04:00am 19.7 16.4 18.0 90 1.0 E 32 37 17 20 1015.8 1015.7 1.4
07/03:30am 19.5 16.9 17.8 90 1.0 ESE 28 39 15 21 1015.9 1015.8 1.4
07/03:00am 19.7 16.8 18.0 90 1.0 ESE 30 39 16 21 1015.5 1015.4 1.4
07/02:30am 19.7 16.4 18.0 90 1.0 ESE 32 41 17 22 1015.5 1015.4 1.4
07/02:00am 19.8 16.3 17.9 89 1.2 ESE 33 41 18 22 1015.5 1015.4 1.4
07/01:30am 19.7 17.3 18.2 91 0.9 ESE 28 37 15 20 1015.8 1015.7 1.4
07/01:00am 20.1 17.5 18.6 91 0.9 ESE 30 39 16 21 1016.0 1015.9 1.0
07/12:30am 19.3 16.0 18.0 92 0.8 ESE 32 44 17 24 1016.2 1016.1 1.0
07/12:00am 19.7 17.0 18.4 92 0.8 SE 30 39 16 21 1016.3 1016.2 1.0
 
Date/Time
WST
Temp
°C
App
Temp
°C
Dew
Point
°C
Rel
Hum
%
Delta-T
°C
Wind Press
QNH
hPa
Press
MSL
hPa
Rain since
9am
mm
Dir  Spd
km/h
Gust
km/h
Spd
kts
Gust
kts
06/11:30pm 20.0 17.0 18.7 92 0.8 ESE 32 37 17 20 1016.0 1015.9 1.0
06/11:00pm 19.8 17.6 18.6 93 0.7 ESE 28 33 15 18 1016.3 1016.2 1.0
06/10:30pm 19.8 17.6 18.6 93 0.7 ESE 28 35 15 19 1016.5 1016.4 1.0
06/10:00pm 20.3 17.5 19.0 92 0.8 SE 32 37 17 20 1016.4 1016.3 1.0
06/09:30pm 19.9 17.7 18.6 92 0.8 ESE 28 37 15 20 1016.6 1016.5 1.0
06/09:00pm 19.8 17.0 18.3 91 0.9 SE 30 37 16 20 1016.5 1016.4 0.8
06/08:30pm 19.9 18.7 18.4 91 0.9 SE 22 30 12 16 1016.5 1016.4 0.8
06/08:00pm 20.0 17.2 18.1 89 1.2 ESE 30 37 16 20 1016.0 1015.9 0.8
06/07:30pm 20.8 19.2 18.4 86 1.5 SE 24 32 13 17 1015.6 1015.5 0.8
06/07:00pm 21.1 19.5 18.3 84 1.7 SE 24 32 13 17 1015.4 1015.3 0.8
06/06:30pm 21.3 20.2 17.7 80 2.2 SE 20 26 11 14 1015.4 1015.3 0.8
06/06:00pm 21.7 20.3 17.9 79 2.4 SE 22 28 12 15 1015.3 1015.2 0.8
06/05:30pm 21.5 20.3 18.3 82 2.0 SE 22 28 12 15 1015.2 1015.1 0.8
06/05:00pm 21.0 20.1 18.2 84 1.7 SE 20 30 11 16 1015.0 1014.9 0.8
06/04:30pm 21.7 20.3 18.7 83 1.9 SE 24 28 13 15 1015.3 1015.2 0.8
06/04:00pm 22.4 21.6 18.0 76 2.7 SSE 19 26 10 14 1015.2 1015.1 0.8
06/03:30pm 22.5 21.0 17.8 75 2.9 SSE 22 26 12 14 1015.1 1015.0 0.8
06/03:00pm 23.7 22.8 19.0 75 3.0 SE 22 28 12 15 1014.9 1014.8 0.8
06/02:30pm 22.9 22.3 18.9 78 2.5 SSE 20 28 11 15 1015.0 1014.9 0.8
06/02:00pm 23.2 22.0 18.3 74 3.1 SSE 22 28 12 15 1015.0 1014.9 0.8
06/01:30pm 24.2 23.3 19.1 73 3.3 SE 22 28 12 15 1015.1 1015.0 0.8
06/01:00pm 23.8 23.0 19.3 76 2.9 SE 22 28 12 15 1015.2 1015.1 0.8
06/12:30pm 23.5 22.7 19.2 77 2.7 SE 22 28 12 15 1015.2 1015.1 0.6
06/12:00pm 22.5 22.3 19.7 84 1.8 SE 20 30 11 16 1015.3 1015.2 0.6
06/11:30am 20.8 19.8 18.9 89 1.2 ESE 22 28 12 15 1015.5 1015.4 0.6
06/11:00am 20.6 20.1 19.1 91 0.9 ESE 20 28 11 15 1015.8 1015.7 0.6
06/10:30am 20.4 19.7 18.7 90 1.1 SE 20 28 11 15 1015.9 1015.8 0.6
06/10:00am 20.7 20.9 18.6 88 1.3 SSE 15 22 8 12 1015.8 1015.7 0.4
06/09:30am 21.6 20.9 18.6 83 1.9 ESE 20 24 11 13 1015.6 1015.5 0.0
06/09:00am 21.2 20.7 18.6 85 1.6 ESE 19 24 10 13 1015.3 1015.2 0.4
06/08:30am 21.3 20.2 18.7 85 1.6 SE 22 26 12 14 1015.1 1015.0 0.4
06/08:00am 20.7 19.5 18.5 87 1.4 SE 22 28 12 15 1014.9 1014.8 0.4
06/07:30am 20.4 19.6 18.5 89 1.2 SE 20 26 11 14 1014.7 1014.6 0.4
06/07:00am 19.9 18.6 18.2 90 1.1 SE 22 30 12 16 1014.7 1014.6 0.4
06/06:30am 19.8 18.6 18.3 91 0.9 SE 22 28 12 15 1014.3 1014.2 0.4
06/06:00am 19.7 18.4 18.2 91 0.9 SSE 22 28 12 15 1014.1 1014.0 0.4
06/05:30am 19.7 18.5 18.4 92 0.8 SSE 22 30 12 16 1014.0 1013.9 0.4
06/05:00am 19.7 19.5 18.5 93 0.7 S 17 24 9 13 1013.7 1013.6 0.4
06/04:30am 19.6 20.1 18.4 93 0.7 SSE 13 20 7 11 1013.5 1013.4 0.4
06/04:00am 19.6 18.8 18.4 93 0.7 SSE 20 24 11 13 1013.4 1013.3 0.4
06/03:30am 19.8 20.0 18.6 93 0.7 SSE 15 20 8 11 1013.3 1013.2 0.4
06/03:00am 19.8 19.0 18.5 92 0.8 SSE 20 26 11 14 1013.1 1013.0 0.4
06/02:30am 19.9 18.8 18.6 92 0.8 S 22 28 12 15 1013.0 1012.9 0.4
06/02:00am 20.0 19.3 18.7 92 0.8 SSE 20 26 11 14 1013.0 1012.9 0.4
06/01:30am 20.0 19.3 18.7 92 0.8 SSE 20 26 11 14 1013.1 1013.0 0.4
06/01:00am 20.0 21.0 18.7 92 0.8 SSE 11 17 6 9 1013.3 1013.2 0.4
06/12:30am 19.8 20.3 18.3 91 0.9 SSW 13 19 7 10 1013.5 1013.4 0.2
06/12:00am 20.2 17.9 18.5 90 1.1 S 28 33 15 18 1013.3 1013.2 0.2
 
Date/Time
WST
Temp
°C
App
Temp
°C
Dew
Point
°C
Rel
Hum
%
Delta-T
°C
Wind Press
QNH
hPa
Press
MSL
hPa
Rain since
9am
mm
Dir  Spd
km/h
Gust
km/h
Spd
kts
Gust
kts
05/11:30pm 20.9 19.9 18.8 88 1.3 S 22 28 12 15 1013.3 1013.2 0.2
05/11:00pm 21.2 20.3 19.1 88 1.3 S 22 28 12 15 1013.4 1013.3 0.2
05/10:30pm 21.2 20.3 19.1 88 1.3 SSW 22 28 12 15 1013.5 1013.4 0.2
05/10:00pm 21.1 20.8 19.2 89 1.2 S 19 26 10 14 1013.5 1013.4 0.2
05/09:30pm 21.1 20.6 19.2 89 1.2 SSW 20 24 11 13 1013.5 1013.4 0.2
05/09:00pm 21.1 20.3 19.2 89 1.2 SSW 22 28 12 15 1013.4 1013.3 0.2
05/08:30pm 21.3 20.5 19.2 88 1.3 SSW 22 28 12 15 1013.3 1013.2 0.2
05/08:00pm 21.5 21.0 19.2 87 1.5 SW 20 24 11 13 1012.9 1012.8 0.2
05/07:30pm 21.3 21.7 19.0 87 1.5 SSW 15 17 8 9 1012.4 1012.3 0.2
05/07:00pm 21.3 22.0 18.9 86 1.5 SSW 13 19 7 10 1012.1 1012.0 0.2
05/06:30pm 21.6 21.9 18.8 84 1.8 SW 15 19 8 10 1012.1 1012.0 0.2
05/06:00pm 21.9 21.9 18.9 83 1.9 SW 17 22 9 12 1011.8 1011.7 0.2
05/05:30pm 22.5 22.0 19.1 81 2.2 SW 20 24 11 13 1011.7 1011.6 0.2
05/05:00pm 22.8 22.8 19.0 79 2.4 SW 17 22 9 12 1011.5 1011.4 0.2
05/04:30pm 23.2 23.0 19.4 79 2.4 WSW 19 20 10 11 1011.2 1011.1 0.2
05/04:00pm 23.8 23.5 19.5 77 2.8 WSW 20 24 11 13 1011.2 1011.1 0.2
05/03:30pm 23.4 23.1 19.5 79 2.5 WSW 20 24 11 13 1010.9 1010.8 0.2
05/03:00pm 23.9 23.9 19.8 78 2.6 WSW 19 22 10 12 1010.9 1010.8 0.2
05/02:30pm 24.6 25.0 20.9 80 2.4 WSW 20 22 11 12 1010.8 1010.7 0.2
05/02:00pm 24.3 24.4 20.4 79 2.5 WNW 20 24 11 13 1010.9 1010.8 0.2
05/01:30pm 23.9 23.8 20.0 79 2.5 WNW 20 22 11 12 1010.8 1010.7 0.2
05/01:00pm 23.8 24.1 20.3 81 2.3 WNW 19 20 10 11 1010.8 1010.7 0.2
05/12:30pm 23.5 23.5 19.8 80 2.4 WNW 19 20 10 11 1010.7 1010.6 0.2
05/12:00pm 23.2 23.8 20.2 83 1.9 WNW 17 19 9 10 1010.7 1010.6 0.2

Other formats

Comma delimited format used in spreadsheet applications
http://www.bom.gov.au/fwo/IDW60801/IDW60801.94601.axf

JavaScript Object Notation format (JSON) in row-major order
http://www.bom.gov.au/fwo/IDW60801/IDW60801.94601.json

Data quality

Most of these data are generated automatically and are frequently updated. Quality checks on data are not normally performed. It is possible for incorrect values to appear. Refer to information at About Latest Weather Observations and please check the disclaimer before using these data.